sensor_id;sensor_type;location;lat;lon;timestamp;P1;P2;P0
82622;PMS5003;72291;55.002;-1.592;2023-08-24T00:06:27;6;5;
82622;PMS5003;72291;55.002;-1.592;2023-08-24T00:08:48;5;5;
82622;PMS5003;72291;55.002;-1.592;2023-08-24T00:11:13;4;4;
82622;PMS5003;72291;55.002;-1.592;2023-08-24T00:16:04;6;5;
82622;PMS5003;72291;55.002;-1.592;2023-08-24T00:20:54;5;5;
82622;PMS5003;72291;55.002;-1.592;2023-08-24T00:28:09;6;6;
82622;PMS5003;72291;55.002;-1.592;2023-08-24T00:33:01;8;8;
82622;PMS5003;72291;55.002;-1.592;2023-08-24T00:35:25;7;6;
82622;PMS5003;72291;55.002;-1.592;2023-08-24T00:37:49;4;3;
82622;PMS5003;72291;55.002;-1.592;2023-08-24T00:40:14;6;6;
82622;PMS5003;72291;55.002;-1.592;2023-08-24T00:47:32;7;6;
82622;PMS5003;72291;55.002;-1.592;2023-08-24T00:49:55;7;6;
82622;PMS5003;72291;55.002;-1.592;2023-08-24T00:54:45;8;8;
82622;PMS5003;72291;55.002;-1.592;2023-08-24T00:57:10;8;8;
82622;PMS5003;72291;55.002;-1.592;2023-08-24T01:02:01;8;8;
82622;PMS5003;72291;55.002;-1.592;2023-08-24T01:09:21;6;6;
82622;PMS5003;72291;55.002;-1.592;2023-08-24T01:14:09;8;8;
82622;PMS5003;72291;55.002;-1.592;2023-08-24T01:18:57;8;7;
82622;PMS5003;72291;55.002;-1.592;2023-08-24T01:23:49;8;7;
82622;PMS5003;72291;55.002;-1.592;2023-08-24T01:26:13;10;9;
82622;PMS5003;72291;55.002;-1.592;2023-08-24T01:31:03;9;9;
82622;PMS5003;72291;55.002;-1.592;2023-08-24T01:33:29;8;8;
82622;PMS5003;72291;55.002;-1.592;2023-08-24T01:35:54;8;8;
82622;PMS5003;72291;55.002;-1.592;2023-08-24T01:38:19;11;10;
82622;PMS5003;72291;55.002;-1.592;2023-08-24T01:43:09;10;9;
82622;PMS5003;72291;55.002;-1.592;2023-08-24T01:45:34;8;8;
82622;PMS5003;72291;55.002;-1.592;2023-08-24T01:48:00;10;9;
82622;PMS5003;72291;55.002;-1.592;2023-08-24T01:52:50;8;8;
82622;PMS5003;72291;55.002;-1.592;2023-08-24T01:55:17;9;9;
82622;PMS5003;72291;55.002;-1.592;2023-08-24T02:00:08;9;9;
82622;PMS5003;72291;55.002;-1.592;2023-08-24T02:02:31;10;10;
82622;PMS5003;72291;55.002;-1.592;2023-08-24T02:12:11;11;10;
82622;PMS5003;72291;55.002;-1.592;2023-08-24T02:14:38;10;9;
82622;PMS5003;72291;55.002;-1.592;2023-08-24T02:19:27;11;10;
82622;PMS5003;72291;55.002;-1.592;2023-08-24T02:21:52;9;8;
82622;PMS5003;72291;55.002;-1.592;2023-08-24T02:38:53;9;9;
82622;PMS5003;72291;55.002;-1.592;2023-08-24T02:41:13;9;9;
82622;PMS5003;72291;55.002;-1.592;2023-08-24T02:50:54;7;7;
82622;PMS5003;72291;55.002;-1.592;2023-08-24T02:53:19;8;8;
82622;PMS5003;72291;55.002;-1.592;2023-08-24T03:51:27;7;7;
82622;PMS5003;72291;55.002;-1.592;2023-08-24T03:53:47;10;9;
82622;PMS5003;72291;55.002;-1.592;2023-08-24T10:44:57;6;4;
82622;PMS5003;72291;55.002;-1.592;2023-08-24T10:52:19;6;4;
82622;PMS5003;72291;55.002;-1.592;2023-08-24T11:01:55;4;4;
82622;PMS5003;72291;55.002;-1.592;2023-08-24T11:04:18;5;2;
82622;PMS5003;72291;55.002;-1.592;2023-08-24T11:09:09;6;4;
82622;PMS5003;72291;55.002;-1.592;2023-08-24T11:40:18;5;5;
82622;PMS5003;72291;55.002;-1.592;2023-08-24T11:42:40;6;6;
82622;PMS5003;72291;55.002;-1.592;2023-08-24T11:47:31;5;5;
82622;PMS5003;72291;55.002;-1.592;2023-08-24T11:52:21;4;4;
82622;PMS5003;72291;55.002;-1.592;2023-08-24T11:54:47;6;6;
82622;PMS5003;72291;55.002;-1.592;2023-08-24T11:59:37;5;4;
82622;PMS5003;72291;55.002;-1.592;2023-08-24T12:04:27;3;3;
82622;PMS5003;72291;55.002;-1.592;2023-08-24T12:09:23;4;4;
82622;PMS5003;72291;55.002;-1.592;2023-08-24T12:14:07;3;3;
82622;PMS5003;72291;55.002;-1.592;2023-08-24T12:16:32;4;3;
82622;PMS5003;72291;55.002;-1.592;2023-08-24T12:21:22;4;4;
82622;PMS5003;72291;55.002;-1.592;2023-08-24T12:26:17;3;3;
82622;PMS5003;72291;55.002;-1.592;2023-08-24T12:28:37;2;2;
82622;PMS5003;72291;55.002;-1.592;2023-08-24T12:33:28;2;2;
82622;PMS5003;72291;55.002;-1.592;2023-08-24T12:40:43;0;0;
82622;PMS5003;72291;55.002;-1.592;2023-08-24T12:45:33;3;3;
82622;PMS5003;72291;55.002;-1.592;2023-08-24T12:47:58;2;2;
82622;PMS5003;72291;55.002;-1.592;2023-08-24T12:50:23;4;4;
82622;PMS5003;72291;55.002;-1.592;2023-08-24T12:52:48;3;3;
82622;PMS5003;72291;55.002;-1.592;2023-08-24T12:55:13;3;2;
82622;PMS5003;72291;55.002;-1.592;2023-08-24T12:57:38;2;1;
82622;PMS5003;72291;55.002;-1.592;2023-08-24T13:02:28;0;0;
82622;PMS5003;72291;55.002;-1.592;2023-08-24T13:09:44;0;0;
82622;PMS5003;72291;55.002;-1.592;2023-08-24T13:14:34;0;0;
82622;PMS5003;72291;55.002;-1.592;2023-08-24T13:19:24;0;0;
82622;PMS5003;72291;55.002;-1.592;2023-08-24T13:21:49;2;1;
82622;PMS5003;72291;55.002;-1.592;2023-08-24T13:24:14;0;0;
82622;PMS5003;72291;55.002;-1.592;2023-08-24T13:26:39;1;1;
82622;PMS5003;72291;55.002;-1.592;2023-08-24T13:31:29;1;1;
82622;PMS5003;72291;55.002;-1.592;2023-08-24T13:36:19;1;1;
82622;PMS5003;72291;55.002;-1.592;2023-08-24T13:38:44;1;1;
82622;PMS5003;72291;55.002;-1.592;2023-08-24T13:43:34;3;2;
82622;PMS5003;72291;55.002;-1.592;2023-08-24T13:48:25;1;1;
82622;PMS5003;72291;55.002;-1.592;2023-08-24T13:53:15;1;1;
82622;PMS5003;72291;55.002;-1.592;2023-08-24T13:55:40;1;1;
82622;PMS5003;72291;55.002;-1.592;2023-08-24T14:00:30;2;2;
82622;PMS5003;72291;55.002;-1.592;2023-08-24T14:07:45;2;1;
82622;PMS5003;72291;55.002;-1.592;2023-08-24T14:12:35;0;0;
82622;PMS5003;72291;55.002;-1.592;2023-08-24T14:17:25;0;0;
82622;PMS5003;72291;55.002;-1.592;2023-08-24T14:24:41;0;0;
82622;PMS5003;72291;55.002;-1.592;2023-08-24T14:29:31;0;0;
82622;PMS5003;72291;55.002;-1.592;2023-08-24T14:34:21;0;0;
82622;PMS5003;72291;55.002;-1.592;2023-08-24T14:36:47;0;0;
82622;PMS5003;72291;55.002;-1.592;2023-08-24T14:41:37;0;0;
82622;PMS5003;72291;55.002;-1.592;2023-08-24T14:46:32;0;0;
82622;PMS5003;72291;55.002;-1.592;2023-08-24T14:51:18;0;0;
82622;PMS5003;72291;55.002;-1.592;2023-08-24T14:53:42;1;0;
82622;PMS5003;72291;55.002;-1.592;2023-08-24T14:58:33;0;0;
82622;PMS5003;72291;55.002;-1.592;2023-08-24T15:10:37;0;0;
82622;PMS5003;72291;55.002;-1.592;2023-08-24T15:15:28;0;0;
82622;PMS5003;72291;55.002;-1.592;2023-08-24T15:17:53;0;0;
82622;PMS5003;72291;55.002;-1.592;2023-08-24T15:20:18;0;0;
82622;PMS5003;72291;55.002;-1.592;2023-08-24T15:22:43;0;0;
82622;PMS5003;72291;55.002;-1.592;2023-08-24T15:27:33;2;1;
82622;PMS5003;72291;55.002;-1.592;2023-08-24T15:32:23;0;0;
82622;PMS5003;72291;55.002;-1.592;2023-08-24T15:34:48;0;0;
82622;PMS5003;72291;55.002;-1.592;2023-08-24T15:39:39;0;0;
82622;PMS5003;72291;55.002;-1.592;2023-08-24T15:44:29;0;0;
82622;PMS5003;72291;55.002;-1.592;2023-08-24T15:49:18;0;0;
82622;PMS5003;72291;55.002;-1.592;2023-08-24T15:51:44;0;0;
82622;PMS5003;72291;55.002;-1.592;2023-08-24T15:56:34;0;0;
82622;PMS5003;72291;55.002;-1.592;2023-08-24T16:01:24;0;0;
82622;PMS5003;72291;55.002;-1.592;2023-08-24T16:03:49;0;0;
82622;PMS5003;72291;55.002;-1.592;2023-08-24T16:06:14;0;0;
82622;PMS5003;72291;55.002;-1.592;2023-08-24T16:32:55;0;0;
82622;PMS5003;72291;55.002;-1.592;2023-08-24T17:57:28;0;0;
82622;PMS5003;72291;55.002;-1.592;2023-08-24T18:02:18;0;0;
82622;PMS5003;72291;55.002;-1.592;2023-08-24T18:04:43;0;0;
82622;PMS5003;72291;55.002;-1.592;2023-08-24T18:07:08;1;0;
82622;PMS5003;72291;55.002;-1.592;2023-08-24T18:09:36;0;0;
82622;PMS5003;72291;55.002;-1.592;2023-08-24T18:14:24;0;0;
82622;PMS5003;72291;55.002;-1.592;2023-08-24T18:16:50;0;0;
82622;PMS5003;72291;55.002;-1.592;2023-08-24T18:19:14;0;0;
82622;PMS5003;72291;55.002;-1.592;2023-08-24T18:21:40;1;0;
82622;PMS5003;72291;55.002;-1.592;2023-08-24T18:26:30;1;0;
82622;PMS5003;72291;55.002;-1.592;2023-08-24T18:33:45;1;0;
82622;PMS5003;72291;55.002;-1.592;2023-08-24T18:41:00;0;0;
82622;PMS5003;72291;55.002;-1.592;2023-08-24T18:43:26;1;0;
82622;PMS5003;72291;55.002;-1.592;2023-08-24T18:48:17;1;0;
82622;PMS5003;72291;55.002;-1.592;2023-08-24T18:50:41;0;0;
82622;PMS5003;72291;55.002;-1.592;2023-08-24T19:00:23;0;0;
82622;PMS5003;72291;55.002;-1.592;2023-08-24T19:02:46;1;1;
82622;PMS5003;72291;55.002;-1.592;2023-08-24T19:05:12;0;0;
82622;PMS5003;72291;55.002;-1.592;2023-08-24T19:12:30;0;0;
82622;PMS5003;72291;55.002;-1.592;2023-08-24T19:14:52;0;0;
82622;PMS5003;72291;55.002;-1.592;2023-08-24T19:55:59;0;0;
82622;PMS5003;72291;55.002;-1.592;2023-08-24T19:58:23;0;0;
82622;PMS5003;72291;55.002;-1.592;2023-08-24T20:03:14;0;0;
82622;PMS5003;72291;55.002;-1.592;2023-08-24T20:05:39;0;0;
82622;PMS5003;72291;55.002;-1.592;2023-08-24T20:08:04;0;0;
82622;PMS5003;72291;55.002;-1.592;2023-08-24T20:10:29;0;0;
82622;PMS5003;72291;55.002;-1.592;2023-08-24T20:20:10;0;0;
82622;PMS5003;72291;55.002;-1.592;2023-08-24T20:22:34;0;0;
82622;PMS5003;72291;55.002;-1.592;2023-08-24T20:25:00;1;0;
82622;PMS5003;72291;55.002;-1.592;2023-08-24T20:27:25;1;0;
82622;PMS5003;72291;55.002;-1.592;2023-08-24T20:32:20;1;1;
82622;PMS5003;72291;55.002;-1.592;2023-08-24T20:34:40;0;0;
82622;PMS5003;72291;55.002;-1.592;2023-08-24T20:39:31;1;0;
82622;PMS5003;72291;55.002;-1.592;2023-08-24T20:49:11;1;0;
82622;PMS5003;72291;55.002;-1.592;2023-08-24T20:51:36;1;0;
82622;PMS5003;72291;55.002;-1.592;2023-08-24T20:56:31;0;0;
82622;PMS5003;72291;55.002;-1.592;2023-08-24T21:03:42;3;0;
82622;PMS5003;72291;55.002;-1.592;2023-08-24T21:08:41;0;0;
82622;PMS5003;72291;55.002;-1.592;2023-08-24T21:11:02;1;1;
82622;PMS5003;72291;55.002;-1.592;2023-08-24T21:13:22;0;0;
82622;PMS5003;72291;55.002;-1.592;2023-08-24T21:15:48;1;1;
82622;PMS5003;72291;55.002;-1.592;2023-08-24T21:20:37;0;0;
82622;PMS5003;72291;55.002;-1.592;2023-08-24T21:30:18;0;0;
82622;PMS5003;72291;55.002;-1.592;2023-08-24T21:32:43;1;1;
82622;PMS5003;72291;55.002;-1.592;2023-08-24T21:37:38;0;0;
82622;PMS5003;72291;55.002;-1.592;2023-08-24T21:42:24;0;0;
82622;PMS5003;72291;55.002;-1.592;2023-08-24T21:44:49;1;0;
82622;PMS5003;72291;55.002;-1.592;2023-08-24T21:49:39;2;1;
82622;PMS5003;72291;55.002;-1.592;2023-08-24T21:52:04;0;0;
82622;PMS5003;72291;55.002;-1.592;2023-08-24T21:54:30;1;0;
82622;PMS5003;72291;55.002;-1.592;2023-08-24T21:59:19;1;1;
82622;PMS5003;72291;55.002;-1.592;2023-08-24T22:01:44;0;0;
82622;PMS5003;72291;55.002;-1.592;2023-08-24T22:06:35;0;0;
82622;PMS5003;72291;55.002;-1.592;2023-08-24T22:08:59;2;1;
82622;PMS5003;72291;55.002;-1.592;2023-08-24T22:11:25;0;0;
82622;PMS5003;72291;55.002;-1.592;2023-08-24T22:13:51;0;0;
82622;PMS5003;72291;55.002;-1.592;2023-08-24T22:16:15;1;1;
82622;PMS5003;72291;55.002;-1.592;2023-08-24T22:23:30;1;1;
82622;PMS5003;72291;55.002;-1.592;2023-08-24T22:28:21;1;1;
82622;PMS5003;72291;55.002;-1.592;2023-08-24T22:30:54;1;1;
82622;PMS5003;72291;55.002;-1.592;2023-08-24T22:35:36;1;1;
82622;PMS5003;72291;55.002;-1.592;2023-08-24T22:38:06;2;2;
82622;PMS5003;72291;55.002;-1.592;2023-08-24T22:40:26;2;2;
82622;PMS5003;72291;55.002;-1.592;2023-08-24T22:45:16;2;2;
82622;PMS5003;72291;55.002;-1.592;2023-08-24T22:47:41;3;2;
82622;PMS5003;72291;55.002;-1.592;2023-08-24T22:50:07;2;2;
82622;PMS5003;72291;55.002;-1.592;2023-08-24T22:57:22;2;2;
82622;PMS5003;72291;55.002;-1.592;2023-08-24T22:59:47;2;2;
82622;PMS5003;72291;55.002;-1.592;2023-08-24T23:14:22;4;3;
82622;PMS5003;72291;55.002;-1.592;2023-08-24T23:16:46;1;1;
82622;PMS5003;72291;55.002;-1.592;2023-08-24T23:21:33;1;1;
82622;PMS5003;72291;55.002;-1.592;2023-08-24T23:26:23;2;2;
82622;PMS5003;72291;55.002;-1.592;2023-08-24T23:28:48;0;0;
82622;PMS5003;72291;55.002;-1.592;2023-08-24T23:31:13;2;2;
82622;PMS5003;72291;55.002;-1.592;2023-08-24T23:33:38;1;0;
82622;PMS5003;72291;55.002;-1.592;2023-08-24T23:40:56;0;0;
82622;PMS5003;72291;55.002;-1.592;2023-08-24T23:43:19;0;0;
82622;PMS5003;72291;55.002;-1.592;2023-08-24T23:45:44;2;1;
82622;PMS5003;72291;55.002;-1.592;2023-08-24T23:52:59;2;1;
82622;PMS5003;72291;55.002;-1.592;2023-08-24T23:55:24;0;0;
82622;PMS5003;72291;55.002;-1.592;2023-08-24T23:57:49;0;0;
